Eastlake, Michigan
Current Conditions -  °F | °C
As of 1:55 PM on Sunday 23 Nov 2014 (Local Time) from KMBL Reporting Station
Overcast Overcast  
Wind Chill:   Ceiling: 1400
Heat Index:   Visibility: 8mi
Dew Point:   Wind: 7mph
Humidity: 87%   Direction: 170°S
Pressure: 29.62"   Gusts: NA
Location:  44.24°N, 86.3°W
Report Text: KMBL 231855Z AUTO 17006KT 8SM OVC014 09/07 A2962 RMK AO1 P0002
Loading
Personal Weather Stations






























Interactive Weather Map New forecast layout! Learn more

10-Day Weather Forecast

Advertisements
Track Severe Weather on mobile